createdAt,value
2022-12-01T00:01:35.035Z,102269.41
2022-12-01T00:03:37.381Z,102240.53
2022-12-01T00:05:39.137Z,102271.25
2022-12-01T00:07:40.795Z,102248.47
2022-12-01T00:09:43.913Z,102265.16
2022-12-01T00:11:45.514Z,102252.00
2022-12-01T00:13:47.090Z,102259.94
2022-12-01T00:15:48.735Z,102214.28
2022-12-01T00:17:50.336Z,102257.28
2022-12-01T00:19:51.977Z,102260.75
2022-12-01T00:21:53.949Z,102258.03
2022-12-01T00:23:57.211Z,102244.06
2022-12-01T00:26:04.087Z,102239.75
2022-12-01T00:28:05.922Z,102259.91
2022-12-01T00:30:08.794Z,102266.94
2022-12-01T00:32:10.414Z,102257.22
2022-12-01T00:34:22.368Z,102260.72
2022-12-01T00:36:24.005Z,102252.72
2022-12-01T00:38:25.741Z,102250.06
2022-12-01T00:40:27.389Z,102265.09
2022-12-01T00:42:30.419Z,102258.94
2022-12-01T00:44:32.022Z,102258.97
2022-12-01T00:46:33.841Z,102252.84
2022-12-01T00:48:35.309Z,102264.31
2022-12-01T00:50:36.890Z,102244.91
2022-12-01T00:52:38.421Z,102240.53
2022-12-01T00:54:40.398Z,102268.63
2022-12-01T00:56:41.956Z,102267.66
2022-12-01T00:58:44.970Z,102267.66
2022-12-01T01:00:46.720Z,102271.19
2022-12-01T01:02:48.265Z,102265.97
2022-12-01T01:04:49.970Z,102274.78
2022-12-01T01:06:51.566Z,102270.38
2022-12-01T01:08:53.129Z,102262.50
2022-12-01T01:10:54.706Z,102268.66
2022-12-01T01:12:56.246Z,102279.94
2022-12-01T01:14:59.289Z,102279.88
2022-12-01T01:17:01.209Z,102259.69
2022-12-01T01:19:02.859Z,102276.34
2022-12-01T01:21:07.907Z,102276.31
2022-12-01T01:23:09.474Z,102283.38
2022-12-01T01:25:11.091Z,102285.22
2022-12-01T01:27:12.625Z,102280.88
2022-12-01T01:29:14.264Z,102269.41
2022-12-01T01:31:19.548Z,102279.88
2022-12-01T01:33:21.141Z,102284.31
2022-12-01T01:35:22.782Z,102279.91
2022-12-01T01:37:24.460Z,102274.63
2022-12-01T01:39:25.987Z,102264.09
2022-12-01T01:41:27.662Z,102279.84
2022-12-01T01:43:45.152Z,102275.47
2022-12-01T01:45:46.739Z,102283.25
2022-12-01T01:47:51.905Z,102275.19
2022-12-01T01:49:55.548Z,102267.19
2022-12-01T01:51:57.253Z,102280.28
2022-12-01T01:54:03.723Z,102277.56
2022-12-01T01:56:07.006Z,102282.88
2022-12-01T01:58:10.522Z,102278.53
2022-12-01T02:00:15.948Z,102273.28
2022-12-01T02:02:17.550Z,102275.97
2022-12-01T02:04:20.674Z,102279.47
2022-12-01T02:06:22.957Z,102276.75
2022-12-01T02:08:24.698Z,102266.28
2022-12-01T02:10:36.547Z,102267.16
2022-12-01T02:12:54.570Z,102267.13
2022-12-01T02:15:08.599Z,102250.47
2022-12-01T02:17:22.353Z,102265.41
2022-12-01T02:19:45.046Z,102263.66
2022-12-01T02:22:03.262Z,102260.13
2022-12-01T02:24:42.503Z,102260.19
2022-12-01T02:26:50.710Z,102250.59
2022-12-01T02:28:57.309Z,102256.72
2022-12-01T02:31:03.022Z,102258.53
2022-12-01T02:33:11.510Z,102258.53
2022-12-01T02:35:19.325Z,102263.81
2022-12-01T02:37:28.227Z,102261.25
2022-12-01T02:39:35.482Z,102251.56
2022-12-01T02:41:41.871Z,102254.16
2022-12-01T02:43:48.288Z,102255.84
2022-12-01T02:45:53.897Z,102260.09
2022-12-01T02:48:00.679Z,102246.94
2022-12-01T02:50:04.656Z,102254.94
2022-12-01T02:52:06.862Z,102236.53
2022-12-01T02:54:13.661Z,102260.09
2022-12-01T02:56:15.562Z,102260.03
2022-12-01T02:58:17.169Z,102260.03
2022-12-01T03:00:19.154Z,102259.13
2022-12-01T03:02:31.932Z,102249.44
2022-12-01T03:04:52.537Z,102238.16
2022-12-01T03:07:03.876Z,102254.75
2022-12-01T03:09:24.512Z,102246.81
2022-12-01T03:11:34.260Z,102249.38
2022-12-01T03:13:44.692Z,102262.63
2022-12-01T03:15:54.243Z,102255.72
2022-12-01T03:18:02.122Z,102204.59
2022-12-01T03:20:12.518Z,102259.13
2022-12-01T03:22:20.007Z,102257.38
2022-12-01T03:24:25.874Z,102261.69
2022-12-01T03:26:31.272Z,102264.41
2022-12-01T03:28:36.485Z,102256.50
2022-12-01T03:30:40.337Z,102240.75
2022-12-01T03:32:45.754Z,102265.41
2022-12-01T03:34:50.755Z,102254.84
2022-12-01T03:36:56.640Z,102264.44
2022-12-01T03:39:02.564Z,102254.88
2022-12-01T03:41:14.389Z,102257.47
2022-12-01T03:43:21.344Z,102257.41
2022-12-01T03:45:31.055Z,102257.47
2022-12-01T03:47:34.901Z,102261.91
2022-12-01T03:49:37.528Z,102273.38
2022-12-01T03:51:44.556Z,102264.63
2022-12-01T03:53:55.820Z,102261.09
2022-12-01T03:56:02.431Z,102262.09
2022-12-01T03:58:09.442Z,102268.19
2022-12-01T04:00:13.436Z,102269.06
2022-12-01T04:02:16.218Z,102269.75
2022-12-01T04:04:17.844Z,102261.91
2022-12-01T04:06:19.390Z,102268.81
2022-12-01T04:08:21.441Z,102272.25
2022-12-01T04:10:24.398Z,102262.72
2022-12-01T04:12:26.160Z,102270.59
2022-12-01T04:14:27.565Z,102282.78
2022-12-01T04:16:29.190Z,102282.72
2022-12-01T04:18:31.219Z,102277.47
2022-12-01T04:20:32.776Z,102280.94
2022-12-01T04:22:34.324Z,102273.06
2022-12-01T04:24:35.898Z,102257.16
2022-12-01T04:26:39.294Z,102250.88
2022-12-01T04:28:40.870Z,102270.38
2022-12-01T04:30:42.432Z,102271.31
2022-12-01T04:32:44.320Z,102265.22
2022-12-01T04:34:45.779Z,102272.25
2022-12-01T04:36:47.369Z,102263.34
2022-12-01T04:38:49.171Z,102279.13
2022-12-01T04:40:50.680Z,102271.31
2022-12-01T04:42:53.571Z,102269.69
2022-12-01T04:44:55.170Z,102273.19
2022-12-01T04:46:56.843Z,102280.19
2022-12-01T04:48:58.547Z,102259.97
2022-12-01T04:51:00.128Z,102275.88
2022-12-01T04:53:01.747Z,102282.13
2022-12-01T04:55:03.563Z,102282.97
2022-12-01T04:57:04.948Z,102303.00
2022-12-01T04:59:08.410Z,102292.50
2022-12-01T05:01:12.997Z,102281.06
2022-12-01T05:03:15.311Z,102293.44
2022-12-01T05:05:16.982Z,102293.34
2022-12-01T05:07:18.549Z,102296.81
2022-12-01T05:09:20.117Z,102289.81
2022-12-01T05:11:21.829Z,102289.00
2022-12-01T05:13:23.499Z,102285.53
2022-12-01T05:15:26.475Z,102289.16
2022-12-01T05:17:35.513Z,102304.03
2022-12-01T05:19:38.644Z,102305.63
2022-12-01T05:21:41.045Z,102300.19
2022-12-01T05:23:42.602Z,102299.28
2022-12-01T05:25:44.197Z,102304.53
2022-12-01T05:27:45.806Z,102311.56
2022-12-01T05:29:47.710Z,102305.38
2022-12-01T05:31:51.021Z,102298.50
2022-12-01T05:33:52.639Z,102307.19
2022-12-01T05:35:54.555Z,102306.28
2022-12-01T05:37:55.891Z,102307.16
2022-12-01T05:39:57.479Z,102312.28
2022-12-01T05:41:58.974Z,102305.38
2022-12-01T05:44:00.559Z,102313.19
2022-12-01T05:46:03.284Z,102315.53
2022-12-01T05:48:06.343Z,102318.13
2022-12-01T05:50:09.025Z,102317.31
2022-12-01T05:52:10.862Z,102300.56
2022-12-01T05:54:12.159Z,102311.19
2022-12-01T05:56:13.656Z,102307.66
2022-12-01T05:58:15.220Z,102315.59
2022-12-01T06:00:17.767Z,102307.84
2022-12-01T06:02:19.336Z,102315.75
2022-12-01T06:04:22.538Z,102298.25
2022-12-01T06:06:24.283Z,102314.13
2022-12-01T06:08:25.868Z,102313.31
2022-12-01T06:10:27.551Z,102307.25
2022-12-01T06:12:29.233Z,102314.34
2022-12-01T06:14:30.751Z,102293.34
2022-12-01T06:16:35.222Z,102314.50
2022-12-01T06:18:38.267Z,102314.34
2022-12-01T06:20:41.151Z,102305.44
2022-12-01T06:22:42.785Z,102321.34
2022-12-01T06:24:44.344Z,102316.19
2022-12-01T06:26:45.905Z,102317.94
2022-12-01T06:28:47.451Z,102318.91
2022-12-01T06:30:49.001Z,102318.03
2022-12-01T06:32:50.592Z,102309.28
2022-12-01T06:34:52.191Z,102320.63
2022-12-01T06:36:55.077Z,102325.88
2022-12-01T06:38:56.760Z,102314.59
2022-12-01T06:40:58.447Z,102316.25
2022-12-01T06:43:00.799Z,102325.78
2022-12-01T06:45:02.404Z,102320.53
2022-12-01T06:47:04.257Z,102322.22
2022-12-01T06:49:05.670Z,102324.00
2022-12-01T06:51:07.539Z,102314.38
2022-12-01T06:53:10.388Z,102328.34
2022-12-01T06:55:12.089Z,102338.78
2022-12-01T06:57:14.155Z,102328.22
2022-12-01T06:59:15.872Z,102334.34
2022-12-01T07:01:18.655Z,102333.53
2022-12-01T07:03:20.229Z,102329.31
2022-12-01T07:05:21.818Z,102324.22
2022-12-01T07:07:23.456Z,102327.69
2022-12-01T07:09:26.424Z,102331.91
2022-12-01T07:11:28.023Z,102338.81
2022-12-01T07:13:33.408Z,102343.13
2022-12-01T07:15:35.367Z,102343.75
2022-12-01T07:17:37.025Z,102342.81
2022-12-01T07:19:38.569Z,102349.63
2022-12-01T07:21:40.170Z,102348.59
2022-12-01T07:23:42.308Z,102354.75
2022-12-01T07:25:45.204Z,102349.31
2022-12-01T07:27:46.704Z,102350.22
2022-12-01T07:29:48.647Z,102352.69
2022-12-01T07:31:50.273Z,102353.59
2022-12-01T07:33:53.402Z,102354.47
2022-12-01T07:35:54.942Z,102358.06
2022-12-01T07:37:56.853Z,102350.91
2022-12-01T07:39:58.368Z,102356.25
2022-12-01T07:42:01.407Z,102357.16
2022-12-01T07:44:03.232Z,102357.22
2022-12-01T07:46:05.976Z,102357.22
2022-12-01T07:48:07.593Z,102354.72
2022-12-01T07:50:09.783Z,102356.53
2022-12-01T07:52:11.324Z,102367.13
2022-12-01T07:54:12.995Z,102363.59
2022-12-01T07:56:14.846Z,102360.09
2022-12-01T07:58:17.537Z,102362.00
2022-12-01T08:00:19.697Z,102363.69
2022-12-01T08:02:21.277Z,102373.16
2022-12-01T08:04:23.004Z,102372.25
2022-12-01T08:06:25.645Z,102366.03
2022-12-01T08:08:27.629Z,102362.59
2022-12-01T08:10:29.130Z,102368.75
2022-12-01T08:12:30.726Z,102369.66
2022-12-01T08:14:33.642Z,102368.56
2022-12-01T08:16:35.202Z,102373.91
2022-12-01T08:18:37.360Z,102373.97
2022-12-01T08:20:39.032Z,102367.06
2022-12-01T08:22:40.550Z,102362.75
2022-12-01T08:24:42.115Z,102363.59
2022-12-01T08:26:43.711Z,102374.94
2022-12-01T08:28:46.444Z,102372.28
2022-12-01T08:30:49.751Z,102367.03
2022-12-01T08:32:53.624Z,102370.53
2022-12-01T08:34:55.346Z,102373.97
2022-12-01T08:36:56.948Z,102372.28
2022-12-01T08:38:58.762Z,102375.84
2022-12-01T08:41:00.736Z,102375.00
2022-12-01T08:43:02.568Z,102371.59
2022-12-01T08:45:04.810Z,102372.34
2022-12-01T08:47:07.823Z,102370.69
2022-12-01T08:49:09.663Z,102376.03
2022-12-01T08:51:11.640Z,102375.88
2022-12-01T08:53:13.176Z,102369.63
2022-12-01T08:55:14.883Z,102381.09
2022-12-01T08:57:16.494Z,102376.84
2022-12-01T08:59:18.344Z,102376.03
2022-12-01T09:01:19.843Z,102372.41
2022-12-01T09:03:22.905Z,102365.63
2022-12-01T09:05:24.569Z,102370.94
2022-12-01T09:07:26.955Z,102370.88
2022-12-01T09:09:29.079Z,102370.53
2022-12-01T09:11:30.663Z,102374.94
2022-12-01T09:13:32.749Z,102381.94
2022-12-01T09:15:34.555Z,102377.56
2022-12-01T09:17:35.931Z,102376.66
2022-12-01T09:19:39.166Z,102379.25
2022-12-01T09:21:41.262Z,102379.97
2022-12-01T09:23:43.004Z,102375.75
2022-12-01T09:25:44.724Z,102377.53
2022-12-01T09:27:46.283Z,102381.09
2022-12-01T09:29:48.254Z,102380.25
2022-12-01T09:31:50.170Z,102376.03
2022-12-01T09:33:54.751Z,102372.56
2022-12-01T09:35:59.331Z,102376.94
2022-12-01T09:38:01.212Z,102369.09
2022-12-01T09:40:03.172Z,102368.25
2022-12-01T09:42:11.295Z,102369.16
2022-12-01T09:44:19.582Z,102376.81
2022-12-01T09:46:26.056Z,102375.97
2022-12-01T09:48:34.729Z,102369.97
2022-12-01T09:50:36.416Z,102374.25
2022-12-01T09:52:43.263Z,102363.75
2022-12-01T09:54:45.480Z,102375.06
2022-12-01T09:56:49.457Z,102382.94
2022-12-01T09:58:55.085Z,102367.19
2022-12-01T10:00:57.625Z,102368.84
2022-12-01T10:03:13.969Z,102367.13
2022-12-01T10:05:19.407Z,102374.22
2022-12-01T10:07:24.595Z,102358.56
2022-12-01T10:09:32.911Z,102363.00
2022-12-01T10:11:36.621Z,102364.00
2022-12-01T10:13:38.273Z,102351.72
2022-12-01T10:15:48.703Z,102352.63
2022-12-01T10:18:03.111Z,102350.84
2022-12-01T10:20:11.304Z,102361.50
2022-12-01T10:22:19.436Z,102351.78
2022-12-01T10:24:31.599Z,102353.47
2022-12-01T10:26:43.972Z,102351.72
2022-12-01T10:29:10.355Z,102349.94
2022-12-01T10:31:18.931Z,102330.72
2022-12-01T10:33:24.564Z,102340.50
2022-12-01T10:35:28.928Z,102350.25
2022-12-01T10:37:31.510Z,102345.00
2022-12-01T10:39:37.663Z,102344.91
2022-12-01T10:41:40.392Z,102350.22
2022-12-01T10:43:45.665Z,102339.66
2022-12-01T10:45:47.518Z,102327.34
2022-12-01T10:48:09.793Z,102336.19
2022-12-01T10:50:26.266Z,102331.00
2022-12-01T10:52:32.995Z,102337.16
2022-12-01T10:54:39.248Z,102325.66
2022-12-01T10:56:42.176Z,102337.84
2022-12-01T10:58:47.440Z,102335.94
2022-12-01T11:01:09.511Z,102330.69
2022-12-01T11:03:21.852Z,102334.16
2022-12-01T11:05:27.926Z,102334.16
2022-12-01T11:07:33.569Z,102324.47
2022-12-01T11:09:36.629Z,102320.09
2022-12-01T11:11:40.065Z,102330.72
2022-12-01T11:13:42.196Z,102315.88
2022-12-01T11:15:51.298Z,102318.59
2022-12-01T11:17:58.720Z,102324.78
2022-12-01T11:20:25.990Z,102323.03
2022-12-01T11:22:30.408Z,102317.91
2022-12-01T11:24:42.976Z,102325.75
2022-12-01T11:26:44.619Z,102316.13
2022-12-01T11:28:59.144Z,102291.50
2022-12-01T11:31:01.704Z,102319.69
2022-12-01T11:33:04.717Z,102317.00
2022-12-01T11:35:16.411Z,102313.53
2022-12-01T11:37:22.411Z,102310.91
2022-12-01T11:39:30.912Z,102309.19
2022-12-01T11:41:38.035Z,102317.03
2022-12-01T11:43:43.726Z,102310.84
2022-12-01T11:45:48.645Z,102317.03
2022-12-01T11:48:03.035Z,102315.28
2022-12-01T11:50:24.737Z,102317.84
2022-12-01T11:52:30.603Z,102325.66
2022-12-01T11:54:32.162Z,102320.34
2022-12-01T11:56:35.349Z,102320.41
2022-12-01T11:58:37.030Z,102312.53
2022-12-01T12:00:46.733Z,102305.59
2022-12-01T12:03:03.076Z,102316.88
2022-12-01T12:05:42.056Z,102315.97
2022-12-01T12:07:54.576Z,102307.22
2022-12-01T12:10:12.925Z,102310.72
2022-12-01T12:12:40.148Z,102293.34
2022-12-01T12:14:51.225Z,102302.16
2022-12-01T12:17:09.860Z,102306.53
2022-12-01T12:19:34.095Z,102306.50
2022-12-01T12:22:00.556Z,102304.72
2022-12-01T12:24:29.258Z,102301.22
2022-12-01T12:26:37.684Z,102309.13
2022-12-01T12:28:54.487Z,102302.09
2022-12-01T12:31:07.994Z,102313.47
2022-12-01T12:33:39.263Z,102304.75
2022-12-01T12:35:47.048Z,102301.19
2022-12-01T12:38:01.431Z,102301.22
2022-12-01T12:40:45.726Z,102303.81
2022-12-01T12:42:59.900Z,102306.50
2022-12-01T12:45:13.964Z,102306.50
2022-12-01T12:47:32.879Z,102294.19
2022-12-01T12:49:42.695Z,102304.72
2022-12-01T12:51:47.904Z,102302.06
2022-12-01T12:53:54.532Z,102308.25
2022-12-01T12:55:59.775Z,102305.50
2022-12-01T12:58:11.090Z,102285.22
2022-12-01T13:00:17.619Z,102303.66
2022-12-01T13:02:24.306Z,102299.31
2022-12-01T13:04:35.607Z,102299.34
2022-12-01T13:06:41.683Z,102301.06
2022-12-01T13:08:49.718Z,102297.59
2022-12-01T13:10:57.762Z,102292.34
2022-12-01T13:13:04.924Z,102292.34
2022-12-01T13:15:16.597Z,102299.47
2022-12-01T13:17:20.718Z,102300.34
2022-12-01T13:19:27.543Z,102300.34
2022-12-01T13:21:36.134Z,102301.97
2022-12-01T13:23:38.540Z,102302.81
2022-12-01T13:25:40.752Z,102301.03
2022-12-01T13:27:44.309Z,102299.25
2022-12-01T13:29:49.761Z,102300.16
2022-12-01T13:31:54.585Z,102294.97
2022-12-01T13:33:58.893Z,102297.59
2022-12-01T13:36:30.314Z,102308.09
2022-12-01T13:38:26.128Z,102304.59
2022-12-01T13:40:30.280Z,102294.09
2022-12-01T13:42:32.007Z,102296.75
2022-12-01T13:44:40.532Z,102294.19
2022-12-01T13:46:57.720Z,102299.47
2022-12-01T13:49:00.970Z,102304.75
2022-12-01T13:51:03.528Z,102295.97
2022-12-01T13:53:10.852Z,102296.91
2022-12-01T13:55:30.155Z,102290.72
2022-12-01T13:57:34.266Z,102298.59
2022-12-01T14:00:03.975Z,102302.94
2022-12-01T14:02:21.797Z,102295.94
2022-12-01T14:04:28.479Z,102291.59
2022-12-01T14:06:39.701Z,102294.28
2022-12-01T14:08:46.756Z,102299.59
2022-12-01T14:10:54.373Z,102287.31
2022-12-01T14:12:59.883Z,102293.47
2022-12-01T14:15:04.180Z,102287.38
2022-12-01T14:17:07.506Z,102286.44
2022-12-01T14:19:27.942Z,102290.84
2022-12-01T14:21:43.927Z,102278.53
2022-12-01T14:24:00.634Z,102273.31
2022-12-01T14:26:11.236Z,102286.47
2022-12-01T14:28:15.010Z,102292.59
2022-12-01T14:30:49.972Z,102283.84
2022-12-01T14:32:51.598Z,102287.34
2022-12-01T14:34:58.124Z,102295.25
2022-12-01T14:37:06.764Z,102290.88
2022-12-01T14:39:13.933Z,102292.59
2022-12-01T14:41:22.778Z,102284.69
2022-12-01T14:43:27.049Z,102292.56
2022-12-01T14:45:35.134Z,102285.44
2022-12-01T14:47:46.627Z,102289.81
2022-12-01T14:49:53.541Z,102297.72
2022-12-01T14:52:04.339Z,102293.41
2022-12-01T14:54:14.231Z,102289.06
2022-12-01T14:56:18.639Z,102289.94
2022-12-01T14:58:24.662Z,102293.47
2022-12-01T15:00:26.272Z,102286.44
2022-12-01T15:02:27.975Z,102280.31
2022-12-01T15:04:30.391Z,102286.47
2022-12-01T15:06:34.895Z,102278.56
2022-12-01T15:08:49.299Z,102279.47
2022-12-01T15:10:57.579Z,102285.63
2022-12-01T15:13:13.531Z,102276.84
2022-12-01T15:15:21.072Z,102275.16
2022-12-01T15:17:30.343Z,102265.53
2022-12-01T15:19:35.692Z,102269.84
2022-12-01T15:21:37.520Z,102273.34
2022-12-01T15:23:53.377Z,102276.88
2022-12-01T15:25:55.554Z,102271.59
2022-12-01T15:28:11.873Z,102285.59
2022-12-01T15:30:14.558Z,102258.34
2022-12-01T15:32:18.264Z,102271.50
2022-12-01T15:34:24.477Z,102276.75
2022-12-01T15:36:26.214Z,102258.34
2022-12-01T15:38:31.161Z,102266.25
2022-12-01T15:43:07.370Z,102243.41
2022-12-01T15:45:17.599Z,102267.97
2022-12-01T15:47:33.434Z,102257.34
2022-12-01T15:49:35.154Z,102273.19
2022-12-01T15:51:36.846Z,102271.34
2022-12-01T15:53:44.899Z,102269.53
2022-12-01T15:55:54.117Z,102268.72
2022-12-01T15:57:59.495Z,102274.84
2022-12-01T16:00:01.080Z,102271.34
2022-12-01T16:02:24.418Z,102277.38
2022-12-01T16:04:28.506Z,102281.91
2022-12-01T16:06:32.962Z,102265.28
2022-12-01T16:08:34.633Z,102280.06
2022-12-01T16:10:36.832Z,102273.06
2022-12-01T16:12:39.728Z,102278.28
2022-12-01T16:15:11.560Z,102283.53
2022-12-01T16:17:13.248Z,102276.53
2022-12-01T16:19:27.126Z,102274.72
2022-12-01T16:21:30.664Z,102267.72
2022-12-01T16:23:32.974Z,102253.72
2022-12-01T16:25:36.974Z,102278.19
2022-12-01T16:27:40.532Z,102281.75
2022-12-01T16:29:48.185Z,102272.84
2022-12-01T16:34:44.053Z,102272.78
2022-12-01T16:36:39.567Z,102277.94
2022-12-01T16:38:41.294Z,102277.94
2022-12-01T16:40:43.443Z,102263.06
2022-12-01T16:42:46.728Z,102283.22
2022-12-01T16:44:49.445Z,102270.06
2022-12-01T16:46:51.279Z,102268.34
2022-12-01T16:48:52.912Z,102278.09
2022-12-01T16:50:54.728Z,102279.78
2022-12-01T16:52:56.071Z,102278.97
2022-12-01T16:54:57.834Z,102284.06
2022-12-01T16:56:59.419Z,102277.97
2022-12-01T16:59:02.680Z,102276.13
2022-12-01T17:01:04.987Z,102282.19
2022-12-01T17:03:07.274Z,102283.94
2022-12-01T17:05:12.198Z,102284.06
2022-12-01T17:07:13.856Z,102283.13
2022-12-01T17:09:15.376Z,102276.25
2022-12-01T17:11:16.904Z,102281.56
2022-12-01T17:13:19.533Z,102279.81
2022-12-01T17:15:22.478Z,102278.91
2022-12-01T17:17:24.025Z,102276.28
2022-12-01T17:19:27.595Z,102284.22
2022-12-01T17:21:29.959Z,102285.16
2022-12-01T17:23:31.585Z,102281.59
2022-12-01T17:25:33.403Z,102279.88
2022-12-01T17:27:34.860Z,102281.63
2022-12-01T17:29:37.844Z,102285.13
2022-12-01T17:31:43.594Z,102278.09
2022-12-01T17:33:45.164Z,102282.50
2022-12-01T17:35:46.698Z,102282.63
2022-12-01T17:37:48.337Z,102280.88
2022-12-01T17:39:50.268Z,102283.53
2022-12-01T17:41:53.927Z,102270.28
2022-12-01T17:43:55.474Z,102272.09
2022-12-01T17:45:57.120Z,102271.47
2022-12-01T17:48:00.114Z,102267.91
2022-12-01T17:50:02.086Z,102274.03
2022-12-01T17:52:04.193Z,102273.25
2022-12-01T17:54:06.614Z,102270.63
2022-12-01T17:56:09.171Z,102271.47
2022-12-01T17:58:10.739Z,102272.38
2022-12-01T18:00:13.914Z,102275.06
2022-12-01T18:02:15.900Z,102274.13
2022-12-01T18:04:21.842Z,102275.00
2022-12-01T18:06:23.453Z,102272.38
2022-12-01T18:08:26.170Z,102276.72
2022-12-01T18:10:27.791Z,102275.03
2022-12-01T18:12:29.338Z,102266.25
2022-12-01T18:14:31.076Z,102275.97
2022-12-01T18:16:33.137Z,102274.22
2022-12-01T18:18:36.111Z,102281.19
2022-12-01T18:20:41.040Z,102273.28
2022-12-01T18:22:42.660Z,102275.06
2022-12-01T18:24:44.480Z,102280.28
2022-12-01T18:26:46.158Z,102269.78
2022-12-01T18:28:52.756Z,102275.91
2022-12-01T18:30:54.775Z,102275.88
2022-12-01T18:32:57.015Z,102274.13
2022-12-01T18:34:58.918Z,102275.00
2022-12-01T18:37:03.135Z,102264.47
2022-12-01T18:39:07.976Z,102262.72
2022-12-01T18:41:13.491Z,102268.84
2022-12-01T18:43:15.454Z,102267.94
2022-12-01T18:45:21.075Z,102261.84
2022-12-01T18:47:23.336Z,102266.22
2022-12-01T18:49:24.969Z,102265.34
2022-12-01T18:51:26.962Z,102263.63
2022-12-01T18:53:30.966Z,102269.75
2022-12-01T18:55:35.732Z,102266.22
2022-12-01T18:57:37.648Z,102265.34
2022-12-01T18:59:39.553Z,102268.00
2022-12-01T19:01:44.040Z,102262.75
2022-12-01T19:03:46.713Z,102266.22
2022-12-01T19:05:48.993Z,102270.66
2022-12-01T19:07:52.955Z,102262.72
2022-12-01T19:09:56.441Z,102267.09
2022-12-01T19:11:58.332Z,102264.50
2022-12-01T19:14:00.285Z,102267.13
2022-12-01T19:16:06.712Z,102263.56
2022-12-01T19:18:08.710Z,102265.38
2022-12-01T19:20:11.841Z,102264.53
2022-12-01T19:22:13.847Z,102254.84
2022-12-01T19:24:15.791Z,102254.00
2022-12-01T19:26:21.107Z,102254.91
2022-12-01T19:28:23.100Z,102256.63
2022-12-01T19:30:25.004Z,102259.25
2022-12-01T19:32:26.689Z,102252.28
2022-12-01T19:34:28.325Z,102251.38
2022-12-01T19:36:30.031Z,102254.88
2022-12-01T19:38:31.647Z,102255.78
2022-12-01T19:40:33.315Z,102254.03
2022-12-01T19:42:36.363Z,102255.78
2022-12-01T19:44:37.941Z,102254.94
2022-12-01T19:46:39.504Z,102259.31
2022-12-01T19:48:41.619Z,102262.81
2022-12-01T19:50:43.846Z,102269.88
2022-12-01T19:52:45.504Z,102269.84
2022-12-01T19:54:47.111Z,102263.69
2022-12-01T19:56:48.996Z,102268.97
2022-12-01T19:58:52.111Z,102275.09
2022-12-01T20:00:53.658Z,102263.69
2022-12-01T20:02:55.249Z,102275.97
2022-12-01T20:04:56.831Z,102280.34
2022-12-01T20:06:58.552Z,102270.78
2022-12-01T20:09:01.274Z,102282.19
2022-12-01T20:11:03.807Z,102279.56
2022-12-01T20:13:05.499Z,102276.00
2022-12-01T20:15:08.992Z,102271.69
2022-12-01T20:17:15.742Z,102277.81
2022-12-01T20:19:17.625Z,102273.44
2022-12-01T20:21:20.792Z,102276.94
2022-12-01T20:23:22.421Z,102269.03
2022-12-01T20:25:24.114Z,102270.78
2022-12-01T20:27:26.079Z,102273.38
2022-12-01T20:29:29.570Z,102277.75
2022-12-01T20:31:33.741Z,102276.88
2022-12-01T20:33:35.421Z,102276.03
2022-12-01T20:35:37.105Z,102268.97
2022-12-01T20:37:38.687Z,102269.84
2022-12-01T20:39:40.457Z,102278.63
2022-12-01T20:41:42.150Z,102280.38
2022-12-01T20:43:43.743Z,102269.84
2022-12-01T20:45:45.621Z,102269.81
2022-12-01T20:47:48.640Z,102270.72
2022-12-01T20:49:53.063Z,102250.53
2022-12-01T20:51:58.486Z,102265.47
2022-12-01T20:54:26.681Z,102271.63
2022-12-01T20:56:21.907Z,102275.97
2022-12-01T20:58:23.519Z,102257.56
2022-12-01T21:00:25.158Z,102274.28
2022-12-01T21:02:27.135Z,102273.38
2022-12-01T21:04:30.453Z,102270.69
2022-12-01T21:06:32.829Z,102266.31
2022-12-01T21:08:36.657Z,102264.59
2022-12-01T21:10:39.771Z,102264.66
2022-12-01T21:12:45.727Z,102264.66
2022-12-01T21:14:59.583Z,102261.13
2022-12-01T21:17:08.466Z,102264.66
2022-12-01T21:19:14.155Z,102269.84
2022-12-01T21:21:25.450Z,102262.00
2022-12-01T21:23:27.814Z,102266.41
2022-12-01T21:25:29.495Z,102263.78
2022-12-01T21:27:31.090Z,102265.53
2022-12-01T21:29:40.101Z,102261.16
2022-12-01T21:31:41.834Z,102264.66
2022-12-01T21:33:43.265Z,102262.00
2022-12-01T21:35:44.932Z,102259.38
2022-12-01T21:37:49.184Z,102265.53
2022-12-01T21:39:52.324Z,102250.59
2022-12-01T21:41:56.836Z,102260.28
2022-12-01T21:44:02.632Z,102253.25
2022-12-01T21:46:13.673Z,102265.50
2022-12-01T21:48:17.463Z,102255.88
2022-12-01T21:50:22.160Z,102249.69
2022-12-01T21:52:27.746Z,102248.84
2022-12-01T21:54:30.880Z,102248.84
2022-12-01T21:56:32.875Z,102243.59
2022-12-01T21:58:37.141Z,102249.72
2022-12-01T22:00:41.070Z,102227.72
2022-12-01T22:02:50.157Z,102240.06
2022-12-01T22:04:52.114Z,102236.56
2022-12-01T22:06:55.825Z,102225.16
2022-12-01T22:09:00.912Z,102240.03
2022-12-01T22:11:09.549Z,102233.03
2022-12-01T22:13:11.093Z,102226.00
2022-12-01T22:15:32.567Z,102222.50
2022-12-01T22:17:35.469Z,102228.63
2022-12-01T22:19:38.700Z,102228.63
2022-12-01T22:21:44.237Z,102213.72
2022-12-01T22:23:46.353Z,102237.44
2022-12-01T22:25:48.006Z,102235.66
2022-12-01T22:27:51.762Z,102229.56
2022-12-01T22:29:59.805Z,102229.50
2022-12-01T22:32:29.671Z,102233.88
2022-12-01T22:34:31.346Z,102226.00
2022-12-01T22:36:33.051Z,102235.63
2022-12-01T22:38:36.519Z,102226.00
2022-12-01T22:40:40.492Z,102229.50
2022-12-01T22:42:42.086Z,102238.28
2022-12-01T22:44:45.235Z,102233.00
2022-12-01T22:46:46.926Z,102232.19
2022-12-01T22:48:50.229Z,102232.13
2022-12-01T22:50:52.249Z,102227.78
2022-12-01T22:52:56.398Z,102228.69
2022-12-01T22:54:58.239Z,102227.75
2022-12-01T22:57:11.361Z,102220.72
2022-12-01T22:59:15.993Z,102218.97
2022-12-01T23:01:24.834Z,102220.72
2022-12-01T23:03:26.721Z,102218.09
2022-12-01T23:05:29.729Z,102218.09
2022-12-01T23:07:33.885Z,102217.28
2022-12-01T23:09:38.680Z,102218.16
2022-12-01T23:11:42.819Z,102213.75
2022-12-01T23:13:44.748Z,102213.75
2022-12-01T23:15:47.839Z,102219.00
2022-12-01T23:17:51.661Z,102204.09
2022-12-01T23:20:01.718Z,102211.13
2022-12-01T23:22:03.478Z,102195.34
2022-12-01T23:24:06.116Z,102212.00
2022-12-01T23:26:08.782Z,102206.69
2022-12-01T23:28:12.346Z,102201.44
2022-12-01T23:30:15.720Z,102194.44
2022-12-01T23:32:17.782Z,102200.56
2022-12-01T23:34:20.961Z,102191.78
2022-12-01T23:36:26.054Z,102192.66
2022-12-01T23:38:31.833Z,102191.75
2022-12-01T23:40:34.906Z,102189.97
2022-12-01T23:42:36.698Z,102188.22
2022-12-01T23:44:40.025Z,102189.97
2022-12-01T23:46:42.134Z,102187.34
2022-12-01T23:48:46.059Z,102188.22
2022-12-01T23:50:52.315Z,102185.56
2022-12-01T23:52:54.365Z,102190.84